Time;durP1;ratioP1;P1;durP2;ratioP2;P2;SDS_P1;SDS_P2;PMS_P1;PMS_P2;Temp;Humidity;BMP_temperature;BMP_pressure;BME280_temperature;BME280_humidity;BME280_pressure;Samples;Min_cycle;Max_cycle;Signal;HPM_P1;HPM_P2
2023/11/09 00:00:09;;;;;;;;;4.50;3.00;;;;;;;;5046741;28;9030;-81
2023/11/09 00:02:36;;;;;;;;;3.33;3.33;;;;;;;;5044088;28;8828;-82
2023/11/09 00:05:04;;;;;;;;;4.75;4.75;;;;;;;;5051227;28;9092;-83
2023/11/09 00:07:32;;;;;;;;;3.00;3.00;;;;;;;;5051595;28;9292;-82
2023/11/09 00:10:05;;;;;;;;;1.33;1.33;;;;;;;;5051535;28;9018;-83
2023/11/09 00:12:32;;;;;;;;;2.00;2.00;;;;;;;;5044776;28;8950;-81
2023/11/09 00:15:03;;;;;;;;;5.00;3.00;;;;;;;;5052537;28;9053;-81
2023/11/09 00:17:30;;;;;;;;;2.00;2.00;;;;;;;;5049355;28;8990;-82
2023/11/09 00:19:57;;;;;;;;;4.00;4.00;;;;;;;;5048631;28;9113;-81
2023/11/09 00:22:24;;;;;;;;;3.33;3.33;;;;;;;;5050132;28;8852;-82
2023/11/09 00:24:53;;;;;;;;;5.00;3.00;;;;;;;;5050494;28;8944;-82
2023/11/09 00:27:20;;;;;;;;;3.75;3.75;;;;;;;;5049855;28;8878;-81
2023/11/09 00:29:48;;;;;;;;;5.00;5.00;;;;;;;;5039288;28;9667;-80
2023/11/09 00:32:16;;;;;;;;;3.67;2.00;;;;;;;;5049179;28;9033;-80
2023/11/09 00:34:44;;;;;;;;;3.00;3.00;;;;;;;;5050477;28;9009;-81
2023/11/09 00:37:12;;;;;;;;;3.00;3.00;;;;;;;;5049935;28;9028;-81
2023/11/09 00:39:39;;;;;;;;;1.67;1.67;;;;;;;;5050336;28;9020;-82
2023/11/09 00:42:08;;;;;;;;;6.33;4.00;;;;;;;;5050891;28;8918;-83
2023/11/09 00:44:36;;;;;;;;;4.00;4.00;;;;;;;;5050617;28;9014;-82
2023/11/09 00:47:03;;;;;;;;;4.67;3.67;;;;;;;;5050628;28;9114;-84
2023/11/09 00:49:31;;;;;;;;;4.00;4.00;;;;;;;;5051746;28;9009;-82
2023/11/09 00:51:58;;;;;;;;;4.67;4.67;;;;;;;;5052670;28;9059;-81
2023/11/09 00:54:27;;;;;;;;;5.00;3.33;;;;;;;;5053781;28;9202;-83
2023/11/09 00:56:57;;;;;;;;;3.00;3.00;;;;;;;;5053988;28;9070;-79
2023/11/09 00:59:26;;;;;;;;;4.67;3.67;;;;;;;;5053622;28;9517;-81
2023/11/09 01:01:53;;;;;;;;;3.33;3.33;;;;;;;;5053065;28;8991;-82
2023/11/09 01:04:21;;;;;;;;;4.00;2.00;;;;;;;;5047233;28;9146;-81
2023/11/09 01:06:48;;;;;;;;;3.00;3.00;;;;;;;;5051320;28;8940;-83
2023/11/09 01:09:17;;;;;;;;;3.00;3.00;;;;;;;;5050562;28;9746;-83
2023/11/09 01:11:45;;;;;;;;;3.00;3.00;;;;;;;;5051248;28;8929;-80
2023/11/09 01:14:12;;;;;;;;;4.00;4.00;;;;;;;;5053065;28;8942;-81
2023/11/09 01:16:41;;;;;;;;;5.00;3.33;;;;;;;;5034145;28;9041;-82
2023/11/09 01:19:08;;;;;;;;;5.33;4.00;;;;;;;;5048704;28;8945;-81
2023/11/09 01:21:36;;;;;;;;;5.00;5.00;;;;;;;;5042058;28;9131;-81
2023/11/09 01:24:06;;;;;;;;;5.00;5.00;;;;;;;;5049380;28;9153;-81
2023/11/09 01:26:33;;;;;;;;;4.33;4.33;;;;;;;;5049209;28;9102;-82
2023/11/09 01:29:00;;;;;;;;;2.00;2.00;;;;;;;;5046737;28;9152;-81
2023/11/09 01:31:27;;;;;;;;;3.33;3.33;;;;;;;;5048935;28;9243;-82
2023/11/09 01:33:56;;;;;;;;;4.67;4.67;;;;;;;;5048499;28;9385;-83
2023/11/09 01:36:23;;;;;;;;;3.00;3.00;;;;;;;;5049228;28;9943;-83
2023/11/09 01:38:51;;;;;;;;;3.00;3.00;;;;;;;;5048643;28;9070;-81
2023/11/09 01:41:18;;;;;;;;;3.00;3.00;;;;;;;;5048664;28;8926;-82
2023/11/09 01:44:01;;;;;;;;;3.00;3.00;;;;;;;;5048142;28;8836;-83
2023/11/09 01:46:28;;;;;;;;;3.33;3.00;;;;;;;;5048199;28;9088;-81
2023/11/09 01:48:57;;;;;;;;;3.33;3.33;;;;;;;;5048612;28;8953;-80
2023/11/09 01:51:28;;;;;;;;;4.00;4.00;;;;;;;;5048995;28;9007;-83
2023/11/09 01:53:55;;;;;;;;;4.50;4.00;;;;;;;;5042725;28;9577;-81
2023/11/09 01:56:23;;;;;;;;;4.75;4.75;;;;;;;;5042591;28;8848;-84
2023/11/09 01:58:52;;;;;;;;;8.00;8.00;;;;;;;;5048816;28;8860;-83
2023/11/09 02:01:22;;;;;;;;;7.67;7.67;;;;;;;;5050866;28;9023;-85
2023/11/09 02:03:49;;;;;;;;;13.00;10.67;;;;;;;;5053317;28;9093;-86
2023/11/09 02:06:18;;;;;;;;;14.67;13.00;;;;;;;;5072860;28;9258;-84
2023/11/09 02:08:47;;;;;;;;;8.33;8.33;;;;;;;;5045566;28;10060;-82
2023/11/09 02:11:15;;;;;;;;;10.33;10.33;;;;;;;;5048323;28;9309;-82
2023/11/09 02:13:42;;;;;;;;;8.33;8.33;;;;;;;;5047057;28;9232;-82
2023/11/09 02:16:09;;;;;;;;;14.33;14.33;;;;;;;;5047305;28;9062;-83
2023/11/09 02:18:37;;;;;;;;;14.33;14.33;;;;;;;;5040833;28;10080;-81
2023/11/09 02:21:05;;;;;;;;;10.33;10.33;;;;;;;;5030367;28;9378;-82
2023/11/09 02:23:37;;;;;;;;;9.00;9.00;;;;;;;;5034421;28;9171;-82
2023/11/09 02:26:06;;;;;;;;;5.67;5.67;;;;;;;;5037734;28;9111;-82
2023/11/09 02:28:34;;;;;;;;;6.33;6.33;;;;;;;;5049267;28;8977;-82
2023/11/09 02:31:01;;;;;;;;;6.00;5.00;;;;;;;;5030564;28;9036;-82
2023/11/09 02:33:31;;;;;;;;;5.67;5.67;;;;;;;;5037877;28;8953;-83
2023/11/09 02:35:59;;;;;;;;;2.00;2.00;;;;;;;;5051786;28;8998;-82
2023/11/09 02:38:27;;;;;;;;;2.00;2.00;;;;;;;;5047803;28;8952;-83
2023/11/09 02:40:56;;;;;;;;;2.25;2.25;;;;;;;;5044929;28;9107;-85
2023/11/09 02:43:25;;;;;;;;;0.50;0.50;;;;;;;;5044033;28;8872;-82
2023/11/09 02:45:57;;;;;;;;;1.00;1.00;;;;;;;;5056288;28;8902;-84
2023/11/09 02:48:24;;;;;;;;;1.00;1.00;;;;;;;;5039359;28;8872;-83
2023/11/09 02:50:52;;;;;;;;;1.00;1.00;;;;;;;;5057437;28;8848;-83
2023/11/09 02:53:20;;;;;;;;;0.00;0.00;;;;;;;;5059241;28;8855;-84
2023/11/09 02:55:47;;;;;;;;;1.00;1.00;;;;;;;;5054217;28;8852;-86
2023/11/09 02:58:16;;;;;;;;;0.00;0.00;;;;;;;;5042392;28;8892;-84
2023/11/09 03:00:45;;;;;;;;;0.00;0.00;;;;;;;;5053442;28;8773;-83
2023/11/09 03:03:13;;;;;;;;;0.00;0.00;;;;;;;;5055375;28;8963;-82
2023/11/09 03:05:42;;;;;;;;;0.00;0.00;;;;;;;;5037809;28;8894;-82
2023/11/09 03:08:10;;;;;;;;;0.25;0.25;;;;;;;;5052855;28;9635;-81
2023/11/09 03:10:37;;;;;;;;;0.25;0.00;;;;;;;;5051812;28;8848;-82
2023/11/09 03:13:04;;;;;;;;;0.00;0.00;;;;;;;;5051396;28;8860;-81
2023/11/09 03:15:31;;;;;;;;;0.00;0.00;;;;;;;;5051803;28;8917;-82
2023/11/09 03:18:00;;;;;;;;;0.00;0.00;;;;;;;;5050589;28;8828;-81
2023/11/09 03:20:27;;;;;;;;;0.00;0.00;;;;;;;;5050984;28;8836;-82
2023/11/09 03:22:57;;;;;;;;;0.00;0.00;;;;;;;;5050252;28;8868;-82
2023/11/09 03:25:27;;;;;;;;;0.25;0.00;;;;;;;;5051839;28;9537;-82
2023/11/09 03:27:54;;;;;;;;;0.00;0.00;;;;;;;;5062773;28;8879;-81
2023/11/09 03:30:22;;;;;;;;;0.00;0.00;;;;;;;;5050728;28;9708;-82
2023/11/09 03:32:49;;;;;;;;;0.00;0.00;;;;;;;;5048103;28;8866;-85
2023/11/09 03:35:18;;;;;;;;;0.00;0.00;;;;;;;;5043627;28;9610;-82
2023/11/09 03:37:48;;;;;;;;;0.00;0.00;;;;;;;;5050965;28;8864;-83
2023/11/09 03:40:15;;;;;;;;;0.00;0.00;;;;;;;;5051316;28;8973;-83
2023/11/09 03:42:43;;;;;;;;;1.00;0.00;;;;;;;;5050905;28;8859;-82
2023/11/09 03:45:14;;;;;;;;;0.00;0.00;;;;;;;;5051259;28;8978;-84
2023/11/09 03:47:41;;;;;;;;;0.00;0.00;;;;;;;;5049583;28;8872;-80
2023/11/09 03:50:09;;;;;;;;;2.50;0.00;;;;;;;;5039221;28;8870;-82
2023/11/09 03:52:38;;;;;;;;;0.00;0.00;;;;;;;;5050504;28;8876;-81
2023/11/09 03:55:07;;;;;;;;;0.00;0.00;;;;;;;;5039459;28;8916;-81
2023/11/09 03:57:35;;;;;;;;;1.75;1.00;;;;;;;;5039425;28;8994;-83
2023/11/09 04:00:07;;;;;;;;;3.00;1.00;;;;;;;;5051552;28;8859;-82
2023/11/09 04:02:36;;;;;;;;;0.00;0.00;;;;;;;;5040510;28;8842;-81
2023/11/09 04:05:03;;;;;;;;;2.50;1.00;;;;;;;;5050118;28;8828;-82
2023/11/09 04:07:32;;;;;;;;;2.00;0.00;;;;;;;;5033983;28;8874;-81
2023/11/09 04:10:01;;;;;;;;;1.25;0.75;;;;;;;;5047646;28;8872;-81
2023/11/09 04:12:28;;;;;;;;;0.00;0.00;;;;;;;;5050759;28;8852;-83
2023/11/09 04:14:59;;;;;;;;;0.25;0.25;;;;;;;;5039701;28;8960;-82
2023/11/09 04:17:27;;;;;;;;;3.33;1.00;;;;;;;;5050481;28;8860;-82
2023/11/09 04:19:56;;;;;;;;;0.25;0.00;;;;;;;;5048134;28;8952;-82
2023/11/09 04:22:25;;;;;;;;;2.00;0.00;;;;;;;;5051171;28;8859;-81
2023/11/09 04:24:53;;;;;;;;;3.00;1.00;;;;;;;;5051091;28;8874;-82
2023/11/09 04:27:22;;;;;;;;;4.00;1.00;;;;;;;;5052622;28;8848;-81
2023/11/09 04:29:50;;;;;;;;;4.00;0.67;;;;;;;;5042880;28;9055;-81
2023/11/09 04:32:18;;;;;;;;;1.00;1.00;;;;;;;;5057284;28;8986;-84
2023/11/09 04:34:45;;;;;;;;;2.00;0.00;;;;;;;;5061227;28;8934;-79
2023/11/09 04:37:13;;;;;;;;;2.00;2.00;;;;;;;;5039297;28;9061;-82
2023/11/09 04:39:46;;;;;;;;;2.00;2.00;;;;;;;;5058390;28;9034;-81
2023/11/09 04:42:18;;;;;;;;;2.00;2.00;;;;;;;;5057239;28;9188;-82
2023/11/09 04:44:47;;;;;;;;;2.67;2.67;;;;;;;;5063948;28;9030;-80
2023/11/09 04:47:21;;;;;;;;;4.00;2.00;;;;;;;;5054993;28;9245;-81
2023/11/09 04:49:57;;;;;;;;;3.67;3.33;;;;;;;;5047425;28;9211;-82
2023/11/09 04:52:26;;;;;;;;;7.00;5.67;;;;;;;;5052258;28;9253;-81
2023/11/09 04:55:09;;;;;;;;;1.00;1.00;;;;;;;;5053602;28;9478;-80
2023/11/09 05:08:41;;;;;;;;;2.00;2.00;;;;;;;;5040705;28;9146;-80
2023/11/09 05:11:32;;;;;;;;;0.00;0.00;;;;;;;;5049575;28;9866;-82
2023/11/09 05:14:00;;;;;;;;;2.33;1.00;;;;;;;;5038930;28;9172;-81
2023/11/09 05:16:29;;;;;;;;;0.00;0.00;;;;;;;;5038560;28;9225;-84
2023/11/09 05:18:56;;;;;;;;;0.33;0.33;;;;;;;;5047496;28;9085;-79
2023/11/09 05:21:24;;;;;;;;;0.00;0.00;;;;;;;;5039208;28;9063;-81
2023/11/09 05:23:51;;;;;;;;;1.00;1.00;;;;;;;;5048729;28;9030;-80
2023/11/09 05:26:19;;;;;;;;;1.00;1.00;;;;;;;;5039392;28;9178;-80
2023/11/09 05:28:48;;;;;;;;;1.00;1.00;;;;;;;;5048420;28;9253;-81
2023/11/09 05:31:17;;;;;;;;;1.00;1.00;;;;;;;;5047274;28;9748;-81
2023/11/09 05:33:47;;;;;;;;;7.00;6.25;;;;;;;;5048958;28;9358;-83
2023/11/09 05:36:16;;;;;;;;;5.25;4.00;;;;;;;;5048662;28;9702;-80
2023/11/09 05:38:44;;;;;;;;;8.25;8.25;;;;;;;;5048564;28;9395;-84
2023/11/09 05:41:14;;;;;;;;;3.00;3.00;;;;;;;;5048595;28;9737;-83
2023/11/09 05:43:41;;;;;;;;;3.00;1.00;;;;;;;;5047836;28;9318;-80
2023/11/09 05:46:25;;;;;;;;;6.00;4.00;;;;;;;;5049178;28;9167;-81
2023/11/09 05:51:52;;;;;;;;;3.67;2.67;;;;;;;;5048045;28;9409;-81
2023/11/09 05:54:20;;;;;;;;;6.00;5.00;;;;;;;;5037562;28;9397;-82
2023/11/09 05:56:48;;;;;;;;;3.25;3.25;;;;;;;;5047733;28;9545;-78
2023/11/09 05:59:17;;;;;;;;;2.50;2.50;;;;;;;;5048610;28;9478;-81
2023/11/09 06:01:45;;;;;;;;;4.00;4.00;;;;;;;;5048008;28;9389;-80
2023/11/09 06:04:13;;;;;;;;;3.00;2.00;;;;;;;;5048480;28;9481;-80
2023/11/09 06:06:45;;;;;;;;;2.25;2.00;;;;;;;;5047979;28;9362;-81
2023/11/09 06:09:14;;;;;;;;;0.00;0.00;;;;;;;;5031068;28;9654;-81
2023/11/09 06:11:51;;;;;;;;;2.00;2.00;;;;;;;;5047162;28;9376;-81
2023/11/09 06:14:19;;;;;;;;;2.00;2.00;;;;;;;;5049268;28;9466;-84
2023/11/09 06:16:46;;;;;;;;;4.00;2.75;;;;;;;;5047649;28;9419;-76
2023/11/09 06:19:17;;;;;;;;;3.00;3.00;;;;;;;;5050401;28;9446;-76
2023/11/09 06:21:44;;;;;;;;;2.00;2.00;;;;;;;;5051472;28;9449;-81
2023/11/09 06:24:11;;;;;;;;;3.75;2.00;;;;;;;;5051569;28;9638;-79
2023/11/09 06:26:42;;;;;;;;;3.50;2.75;;;;;;;;5052089;28;9621;-78
2023/11/09 06:29:10;;;;;;;;;3.75;2.00;;;;;;;;5051970;28;9565;-81
2023/11/09 06:31:38;;;;;;;;;7.50;4.00;;;;;;;;5050264;28;9704;-81
2023/11/09 06:34:14;;;;;;;;;3.75;2.00;;;;;;;;5048489;28;9558;-81
2023/11/09 06:36:49;;;;;;;;;4.75;3.25;;;;;;;;5048861;28;9547;-83
2023/11/09 06:39:17;;;;;;;;;6.00;4.00;;;;;;;;5051230;28;9630;-81
2023/11/09 06:41:44;;;;;;;;;3.00;3.00;;;;;;;;5050266;28;9813;-76
2023/11/09 06:44:12;;;;;;;;;3.75;3.75;;;;;;;;5046960;28;9741;-85
2023/11/09 06:46:40;;;;;;;;;3.00;3.00;;;;;;;;5047650;28;9702;-81
2023/11/09 06:49:07;;;;;;;;;2.50;2.50;;;;;;;;5043068;28;9926;-78
2023/11/09 06:51:34;;;;;;;;;4.00;2.00;;;;;;;;5040184;28;10587;-76
2023/11/09 06:54:04;;;;;;;;;2.00;2.00;;;;;;;;5046729;28;10572;-79
2023/11/09 06:56:33;;;;;;;;;4.25;3.00;;;;;;;;5047148;28;9780;-77
2023/11/09 06:59:00;;;;;;;;;4.50;2.75;;;;;;;;5046734;28;9868;-79
2023/11/09 07:01:27;;;;;;;;;5.25;3.00;;;;;;;;5048980;28;9732;-79
2023/11/09 07:03:55;;;;;;;;;3.00;1.75;;;;;;;;5053159;28;9771;-71
2023/11/09 07:06:22;;;;;;;;;4.00;2.50;;;;;;;;5062019;28;9833;-80
2023/11/09 07:08:51;;;;;;;;;3.50;2.00;;;;;;;;5048111;28;9863;-81
2023/11/09 07:11:19;;;;;;;;;1.75;1.75;;;;;;;;5047380;28;10633;-79
2023/11/09 07:13:48;;;;;;;;;3.00;3.00;;;;;;;;5046901;28;9866;-80
2023/11/09 07:16:16;;;;;;;;;0.25;0.25;;;;;;;;5047083;28;9844;-79
2023/11/09 07:18:44;;;;;;;;;2.00;2.00;;;;;;;;5047366;28;9746;-84
2023/11/09 07:21:11;;;;;;;;;2.50;2.25;;;;;;;;5045009;28;9982;-77
2023/11/09 07:23:41;;;;;;;;;3.75;2.75;;;;;;;;5040464;28;9996;-80
2023/11/09 07:26:10;;;;;;;;;2.00;2.00;;;;;;;;5043465;28;9847;-81
2023/11/09 07:28:42;;;;;;;;;2.00;2.00;;;;;;;;5051099;28;9875;-82
2023/11/09 07:31:09;;;;;;;;;1.75;1.75;;;;;;;;5047420;28;10026;-82
2023/11/09 07:33:36;;;;;;;;;4.25;2.00;;;;;;;;5043370;28;9956;-73
2023/11/09 07:36:04;;;;;;;;;3.00;3.00;;;;;;;;5053428;28;10025;-81
2023/11/09 07:38:33;;;;;;;;;2.00;1.50;;;;;;;;5053508;28;10035;-80
2023/11/09 07:41:03;;;;;;;;;1.25;1.25;;;;;;;;5038200;28;10115;-76
2023/11/09 07:43:31;;;;;;;;;4.00;2.25;;;;;;;;5051017;28;9950;-77
2023/11/09 07:46:00;;;;;;;;;3.50;3.00;;;;;;;;5045622;28;10920;-75
2023/11/09 07:48:27;;;;;;;;;3.00;3.00;;;;;;;;5043878;28;10229;-76
2023/11/09 07:50:55;;;;;;;;;1.00;1.00;;;;;;;;5048593;28;10097;-85
2023/11/09 07:53:22;;;;;;;;;1.00;1.00;;;;;;;;5050368;28;10093;-79
2023/11/09 07:55:49;;;;;;;;;3.75;2.00;;;;;;;;5045611;28;10011;-88
2023/11/09 07:58:19;;;;;;;;;2.75;2.00;;;;;;;;5045225;28;10103;-81
2023/11/09 08:00:48;;;;;;;;;3.25;3.25;;;;;;;;5050074;28;10080;-85
2023/11/09 08:03:17;;;;;;;;;2.25;2.25;;;;;;;;5053113;28;10080;-87
2023/11/09 08:05:46;;;;;;;;;4.00;2.00;;;;;;;;5053488;28;9938;-78
2023/11/09 08:08:14;;;;;;;;;3.00;3.00;;;;;;;;5052040;28;9921;-76
2023/11/09 08:10:42;;;;;;;;;3.25;1.75;;;;;;;;5052100;28;10033;-76
2023/11/09 08:13:10;;;;;;;;;3.50;3.50;;;;;;;;5051595;28;9933;-84
2023/11/09 08:15:38;;;;;;;;;3.75;1.00;;;;;;;;5053535;28;10074;-76
2023/11/09 08:18:05;;;;;;;;;4.75;1.50;;;;;;;;5051672;28;9834;-75
2023/11/09 08:20:33;;;;;;;;;1.50;1.50;;;;;;;;5046525;28;9871;-77
2023/11/09 08:23:01;;;;;;;;;5.25;3.00;;;;;;;;5050185;28;10292;-79
2023/11/09 08:25:28;;;;;;;;;2.00;2.00;;;;;;;;5050727;28;9929;-75
2023/11/09 08:27:55;;;;;;;;;3.00;3.00;;;;;;;;5049795;28;9931;-76
2023/11/09 08:30:27;;;;;;;;;2.25;2.00;;;;;;;;5049226;28;9808;-77
2023/11/09 08:32:55;;;;;;;;;1.00;1.00;;;;;;;;5049037;28;9860;-74
2023/11/09 08:35:25;;;;;;;;;3.00;2.50;;;;;;;;5049422;28;10576;-74
2023/11/09 08:37:53;;;;;;;;;8.25;3.00;;;;;;;;5048095;28;9863;-75
2023/11/09 08:40:27;;;;;;;;;1.00;1.00;;;;;;;;5049161;28;9777;-76
2023/11/09 08:42:55;;;;;;;;;3.25;1.00;;;;;;;;5036095;28;9714;-77
2023/11/09 08:45:24;;;;;;;;;3.75;3.00;;;;;;;;5048258;28;9652;-74
2023/11/09 08:47:51;;;;;;;;;9.25;3.00;;;;;;;;5048944;28;9459;-76
2023/11/09 08:50:20;;;;;;;;;1.00;1.00;;;;;;;;5048667;28;9532;-79
2023/11/09 08:52:49;;;;;;;;;2.00;2.00;;;;;;;;5049069;28;9501;-78
2023/11/09 08:55:18;;;;;;;;;3.00;2.00;;;;;;;;5047338;28;9557;-76
2023/11/09 08:57:45;;;;;;;;;2.33;1.00;;;;;;;;5048728;28;9386;-79
2023/11/09 09:00:13;;;;;;;;;2.00;2.00;;;;;;;;5045810;28;9361;-77
2023/11/09 09:02:45;;;;;;;;;2.00;2.00;;;;;;;;5039006;28;9422;-80
2023/11/09 09:05:18;;;;;;;;;1.33;1.33;;;;;;;;5048594;28;9289;-75
2023/11/09 09:07:46;;;;;;;;;4.00;2.00;;;;;;;;5049558;28;9991;-76
2023/11/09 09:10:15;;;;;;;;;2.33;1.00;;;;;;;;5049770;28;9484;-77
2023/11/09 09:12:45;;;;;;;;;0.67;0.67;;;;;;;;5038644;28;9300;-76
2023/11/09 09:15:15;;;;;;;;;2.00;2.00;;;;;;;;5049562;28;9328;-75
2023/11/09 09:17:45;;;;;;;;;2.67;2.67;;;;;;;;5048465;28;9267;-79
2023/11/09 09:20:15;;;;;;;;;2.00;2.00;;;;;;;;5045462;28;9097;-75
2023/11/09 09:22:49;;;;;;;;;3.67;2.00;;;;;;;;5043722;28;9254;-74
2023/11/09 09:25:17;;;;;;;;;1.33;1.00;;;;;;;;5040488;28;9235;-75
2023/11/09 09:27:48;;;;;;;;;2.33;2.00;;;;;;;;5059115;28;9223;-77
2023/11/09 09:30:17;;;;;;;;;1.00;1.00;;;;;;;;5044453;28;9206;-78
2023/11/09 09:32:48;;;;;;;;;2.33;1.00;;;;;;;;5046293;28;9169;-74
2023/11/09 09:35:20;;;;;;;;;4.00;2.33;;;;;;;;5041118;28;9036;-78
2023/11/09 09:37:48;;;;;;;;;1.33;1.33;;;;;;;;5047137;28;9856;-78
2023/11/09 09:40:17;;;;;;;;;4.67;2.00;;;;;;;;5039771;28;9978;-77
2023/11/09 09:42:47;;;;;;;;;1.33;1.33;;;;;;;;5048216;28;9183;-77
2023/11/09 09:45:19;;;;;;;;;2.00;1.00;;;;;;;;5049504;28;9254;-79
2023/11/09 09:47:48;;;;;;;;;2.00;2.00;;;;;;;;5051374;28;9196;-79
2023/11/09 09:50:16;;;;;;;;;3.00;1.67;;;;;;;;5043507;28;9233;-78
2023/11/09 09:52:46;;;;;;;;;3.00;3.00;;;;;;;;5049177;28;9238;-72
2023/11/09 09:55:15;;;;;;;;;3.33;2.00;;;;;;;;5053239;28;9249;-74
2023/11/09 09:57:47;;;;;;;;;4.00;2.00;;;;;;;;5051881;28;9168;-76
2023/11/09 10:00:23;;;;;;;;;2.67;1.33;;;;;;;;5052189;28;9293;-79
2023/11/09 10:02:51;;;;;;;;;2.33;1.33;;;;;;;;5046171;28;9071;-77
2023/11/09 10:05:19;;;;;;;;;2.33;1.33;;;;;;;;5048672;28;9184;-78
2023/11/09 10:08:02;;;;;;;;;2.00;2.00;;;;;;;;5048181;28;9210;-75
2023/11/09 10:10:32;;;;;;;;;1.00;1.00;;;;;;;;5048855;28;9003;-78
2023/11/09 10:13:01;;;;;;;;;5.00;2.00;;;;;;;;5047650;28;8959;-79
2023/11/09 10:15:29;;;;;;;;;3.00;3.00;;;;;;;;5046657;28;9723;-75
2023/11/09 10:17:57;;;;;;;;;3.67;2.33;;;;;;;;5047398;28;8927;-77
2023/11/09 10:20:24;;;;;;;;;5.00;4.00;;;;;;;;5046728;28;8919;-76
2023/11/09 10:22:53;;;;;;;;;2.00;2.00;;;;;;;;5040961;28;8992;-76
2023/11/09 10:25:26;;;;;;;;;3.25;3.25;;;;;;;;5047581;28;8993;-79
2023/11/09 10:27:59;;;;;;;;;4.00;2.25;;;;;;;;5046259;28;9610;-78
2023/11/09 10:30:29;;;;;;;;;3.50;2.00;;;;;;;;5046768;28;8764;-78
2023/11/09 10:33:05;;;;;;;;;3.75;2.00;;;;;;;;5047282;28;8856;-77
2023/11/09 10:35:32;;;;;;;;;3.00;3.00;;;;;;;;5046896;28;8844;-77
2023/11/09 10:38:01;;;;;;;;;3.25;2.00;;;;;;;;5046689;28;8847;-78
2023/11/09 10:40:30;;;;;;;;;5.25;3.75;;;;;;;;5046919;28;8851;-78
2023/11/09 10:43:04;;;;;;;;;3.50;3.50;;;;;;;;5046826;28;8945;-77
2023/11/09 10:45:36;;;;;;;;;3.00;3.00;;;;;;;;5047040;28;8864;-77
2023/11/09 10:48:07;;;;;;;;;6.75;2.50;;;;;;;;5046942;28;8860;-78
2023/11/09 10:50:44;;;;;;;;;3.00;3.00;;;;;;;;5046625;28;8860;-77
2023/11/09 10:53:15;;;;;;;;;3.75;2.00;;;;;;;;5047448;28;8886;-79
2023/11/09 10:55:47;;;;;;;;;3.50;3.00;;;;;;;;5046335;28;8865;-77
2023/11/09 10:58:20;;;;;;;;;2.25;2.25;;;;;;;;5046749;28;8884;-76
2023/11/09 11:00:50;;;;;;;;;5.00;3.00;;;;;;;;5046733;28;8780;-77
2023/11/09 11:03:25;;;;;;;;;2.25;1.75;;;;;;;;5050224;28;8848;-80
2023/11/09 11:05:55;;;;;;;;;5.75;3.75;;;;;;;;5050590;28;8874;-79
2023/11/09 11:08:26;;;;;;;;;2.00;1.00;;;;;;;;5050210;28;8852;-78
2023/11/09 11:10:54;;;;;;;;;2.50;2.50;;;;;;;;5050592;28;8925;-79
2023/11/09 11:13:21;;;;;;;;;3.00;3.00;;;;;;;;5050715;28;8872;-77
2023/11/09 11:16:21;;;;;;;;;5.00;4.00;;;;;;;;5055609;28;8989;-78
2023/11/09 11:19:06;;;;;;;;;3.75;2.00;;;;;;;;5049256;28;8980;-77
2023/11/09 11:21:52;;;;;;;;;3.33;2.67;;;;;;;;5042906;28;9619;-76
2023/11/09 11:24:44;;;;;;;;;2.75;2.75;;;;;;;;5050464;28;8937;-78
2023/11/09 11:27:16;;;;;;;;;3.00;2.50;;;;;;;;5040127;28;8920;-79
2023/11/09 11:29:47;;;;;;;;;1.00;1.00;;;;;;;;5049967;28;8867;-78
2023/11/09 11:32:21;;;;;;;;;3.00;3.00;;;;;;;;5051412;28;8793;-78
2023/11/09 11:34:54;;;;;;;;;8.00;5.00;;;;;;;;5040980;28;9011;-82
2023/11/09 11:37:26;;;;;;;;;2.00;2.00;;;;;;;;5053234;28;9023;-77
2023/11/09 11:39:55;;;;;;;;;4.75;3.25;;;;;;;;5054262;28;8848;-81
2023/11/09 11:42:25;;;;;;;;;1.00;1.00;;;;;;;;5047175;28;8927;-80
2023/11/09 11:44:54;;;;;;;;;3.00;3.00;;;;;;;;5053774;28;8848;-79
2023/11/09 11:47:24;;;;;;;;;2.75;2.75;;;;;;;;5051636;28;8930;-79
2023/11/09 11:49:53;;;;;;;;;5.25;3.50;;;;;;;;5052235;28;8881;-82
2023/11/09 11:52:20;;;;;;;;;5.00;3.50;;;;;;;;5050804;28;8862;-79
2023/11/09 11:54:48;;;;;;;;;6.33;2.67;;;;;;;;5044199;28;8874;-76
2023/11/09 11:57:15;;;;;;;;;5.00;5.00;;;;;;;;5058771;28;8924;-74
2023/11/09 11:59:44;;;;;;;;;7.33;5.33;;;;;;;;5050261;28;8922;-80
2023/11/09 12:02:12;;;;;;;;;2.00;1.00;;;;;;;;5050842;28;8958;-77
2023/11/09 12:04:47;;;;;;;;;5.50;3.25;;;;;;;;5050763;28;8947;-77
2023/11/09 12:07:21;;;;;;;;;3.25;1.75;;;;;;;;5048469;28;8832;-75
2023/11/09 12:09:49;;;;;;;;;8.25;3.25;;;;;;;;5049757;28;8859;-79
2023/11/09 12:12:16;;;;;;;;;4.00;2.00;;;;;;;;5045667;28;8959;-76
2023/11/09 12:14:46;;;;;;;;;3.00;3.00;;;;;;;;5049607;28;8846;-79
2023/11/09 12:17:13;;;;;;;;;2.75;2.75;;;;;;;;5049504;28;8897;-78
2023/11/09 12:19:43;;;;;;;;;6.00;2.75;;;;;;;;5047961;28;8850;-79
2023/11/09 12:22:11;;;;;;;;;3.00;2.00;;;;;;;;5045917;28;8834;-78
2023/11/09 12:24:40;;;;;;;;;3.00;3.00;;;;;;;;5049356;28;8939;-80
2023/11/09 12:27:09;;;;;;;;;3.25;1.75;;;;;;;;5052419;28;8828;-80
2023/11/09 12:29:39;;;;;;;;;3.50;2.00;;;;;;;;5037034;28;8937;-77
2023/11/09 12:32:07;;;;;;;;;3.50;2.50;;;;;;;;5038033;28;8811;-76
2023/11/09 12:34:37;;;;;;;;;0.00;0.00;;;;;;;;5048923;28;9281;-77
2023/11/09 12:37:11;;;;;;;;;3.00;2.75;;;;;;;;5049735;28;8975;-76
2023/11/09 12:39:41;;;;;;;;;5.00;2.50;;;;;;;;5048887;28;8925;-80
2023/11/09 12:42:11;;;;;;;;;2.50;2.00;;;;;;;;5049098;28;8844;-82
2023/11/09 12:44:42;;;;;;;;;1.25;1.25;;;;;;;;5049174;28;8856;-79
2023/11/09 12:47:17;;;;;;;;;2.50;2.50;;;;;;;;5049193;28;8816;-78
2023/11/09 12:49:52;;;;;;;;;4.00;3.00;;;;;;;;5049399;28;8840;-75
2023/11/09 12:52:21;;;;;;;;;0.50;0.50;;;;;;;;5048834;28;8842;-79
2023/11/09 12:54:50;;;;;;;;;1.75;1.00;;;;;;;;5048930;28;8866;-78
2023/11/09 12:57:18;;;;;;;;;4.25;3.00;;;;;;;;5048195;28;9003;-77
2023/11/09 12:59:48;;;;;;;;;6.00;2.00;;;;;;;;5048947;28;8840;-78
2023/11/09 13:02:15;;;;;;;;;3.00;3.00;;;;;;;;5042161;28;8810;-76
2023/11/09 13:04:45;;;;;;;;;4.67;3.00;;;;;;;;5043775;28;9095;-75
2023/11/09 13:07:14;;;;;;;;;3.67;3.33;;;;;;;;5049505;28;8954;-80
2023/11/09 13:09:42;;;;;;;;;2.00;1.00;;;;;;;;5048577;28;9730;-77
2023/11/09 13:15:22;;;;;;;;;3.67;2.33;;;;;;;;4968450;28;8861;-78
2023/11/09 13:17:53;;;;;;;;;2.00;2.00;;;;;;;;4968418;28;9066;-82
2023/11/09 13:23:06;;;;;;;;;2.75;2.00;;;;;;;;5051548;28;8844;-81
2023/11/09 13:25:34;;;;;;;;;2.00;2.00;;;;;;;;5053627;28;8848;-82
2023/11/09 13:28:06;;;;;;;;;1.75;1.75;;;;;;;;5052049;28;8836;-76
2023/11/09 13:30:33;;;;;;;;;1.50;1.50;;;;;;;;5052030;28;8760;-78
2023/11/09 13:33:16;;;;;;;;;2.00;2.00;;;;;;;;5051325;28;8875;-79
2023/11/09 13:35:49;;;;;;;;;1.00;1.00;;;;;;;;5052158;28;8860;-80
2023/11/09 13:38:29;;;;;;;;;0.50;0.50;;;;;;;;5048594;28;8843;-75
2023/11/09 13:41:09;;;;;;;;;0.00;0.00;;;;;;;;5048394;28;9602;-80
2023/11/09 13:43:48;;;;;;;;;3.25;2.00;;;;;;;;5032729;28;8848;-81
2023/11/09 13:46:22;;;;;;;;;0.00;0.00;;;;;;;;5051060;28;8845;-79
2023/11/09 13:48:51;;;;;;;;;1.00;1.00;;;;;;;;5048787;28;8828;-80
2023/11/09 13:51:24;;;;;;;;;0.00;0.00;;;;;;;;5048066;28;8859;-80
2023/11/09 13:53:55;;;;;;;;;2.00;1.00;;;;;;;;5046804;28;8832;-80
2023/11/09 13:59:12;;;;;;;;;0.75;0.00;;;;;;;;5045299;28;8809;-78
2023/11/09 14:01:41;;;;;;;;;3.33;1.00;;;;;;;;5046274;28;8841;-80
2023/11/09 14:04:16;;;;;;;;;2.25;1.00;;;;;;;;5048012;28;8904;-78
2023/11/09 14:06:46;;;;;;;;;2.00;0.50;;;;;;;;5046958;28;8868;-79
2023/11/09 14:09:30;;;;;;;;;1.00;1.00;;;;;;;;5039415;28;8857;-75
2023/11/09 14:11:59;;;;;;;;;1.00;1.00;;;;;;;;5046304;28;8835;-78
2023/11/09 14:14:31;;;;;;;;;1.00;1.00;;;;;;;;5048084;28;8872;-76
2023/11/09 14:16:58;;;;;;;;;0.75;0.75;;;;;;;;5045025;28;8852;-80
2023/11/09 14:19:34;;;;;;;;;0.75;0.75;;;;;;;;5049906;28;8836;-77
2023/11/09 14:22:03;;;;;;;;;1.25;1.00;;;;;;;;5055303;28;8836;-73
2023/11/09 14:24:31;;;;;;;;;2.75;0.00;;;;;;;;5056497;28;9665;-80
2023/11/09 14:27:03;;;;;;;;;0.25;0.25;;;;;;;;5039022;28;8873;-76
2023/11/09 14:29:31;;;;;;;;;1.75;0.75;;;;;;;;5041709;28;8842;-79
2023/11/09 14:31:59;;;;;;;;;0.75;0.75;;;;;;;;5038154;28;8808;-76
2023/11/09 14:34:27;;;;;;;;;1.00;1.00;;;;;;;;5043223;28;8884;-83
2023/11/09 14:36:58;;;;;;;;;0.00;0.00;;;;;;;;5042139;28;8868;-79
2023/11/09 14:39:36;;;;;;;;;3.25;2.00;;;;;;;;5051497;28;8918;-80
2023/11/09 14:42:05;;;;;;;;;0.00;0.00;;;;;;;;5051439;28;8868;-79
2023/11/09 14:44:35;;;;;;;;;0.00;0.00;;;;;;;;5052165;28;8841;-81
2023/11/09 14:47:05;;;;;;;;;0.00;0.00;;;;;;;;5050995;28;8855;-79
2023/11/09 14:49:33;;;;;;;;;1.00;1.00;;;;;;;;5051753;28;8868;-78
2023/11/09 14:52:06;;;;;;;;;0.00;0.00;;;;;;;;5054158;28;8848;-79
2023/11/09 14:54:40;;;;;;;;;0.00;0.00;;;;;;;;5055032;28;8856;-80
2023/11/09 14:57:12;;;;;;;;;2.00;1.00;;;;;;;;5051583;28;8851;-78
2023/11/09 14:59:44;;;;;;;;;0.00;0.00;;;;;;;;5051275;28;8840;-83
2023/11/09 15:02:12;;;;;;;;;0.00;0.00;;;;;;;;5051376;28;9563;-81
2023/11/09 15:04:39;;;;;;;;;1.00;0.00;;;;;;;;5042384;28;8874;-82
2023/11/09 15:07:19;;;;;;;;;0.00;0.00;;;;;;;;5052499;28;8936;-80
2023/11/09 15:09:47;;;;;;;;;0.00;0.00;;;;;;;;5054512;28;9229;-81
2023/11/09 15:12:16;;;;;;;;;0.00;0.00;;;;;;;;5056271;28;9496;-79
2023/11/09 15:14:45;;;;;;;;;0.00;0.00;;;;;;;;5050094;28;9475;-80
2023/11/09 15:17:14;;;;;;;;;0.00;0.00;;;;;;;;5054013;28;9574;-77
2023/11/09 15:19:42;;;;;;;;;0.00;0.00;;;;;;;;5053350;28;9712;-80
2023/11/09 15:22:14;;;;;;;;;0.00;0.00;;;;;;;;5053031;28;9746;-78
2023/11/09 15:24:43;;;;;;;;;0.00;0.00;;;;;;;;5051164;28;9628;-77
2023/11/09 15:27:14;;;;;;;;;0.00;0.00;;;;;;;;5051263;28;10655;-79
2023/11/09 15:29:41;;;;;;;;;0.00;0.00;;;;;;;;5051305;28;9748;-77
2023/11/09 15:32:11;;;;;;;;;0.00;0.00;;;;;;;;5053776;28;10189;-80